Time;durP1;ratioP1;P1;durP2;ratioP2;P2;SDS_P1;SDS_P2;PMS_P1;PMS_P2;Temp;Humidity;BMP_temperature;BMP_pressure;BME280_temperature;BME280_humidity;BME280_pressure;Samples;Min_cycle;Max_cycle;Signal;HPM_P1;HPM_P2
2021/04/18 00:01:17;;;;;;;15.40;8.90;;;;;;;4.03;100.00;101218.28;4981226;28;20285;-71
2021/04/18 00:03:43;;;;;;;10.43;7.63;;;;;;;4.05;100.00;101216.59;4985885;28;20232;-71
2021/04/18 00:06:10;;;;;;;10.90;8.33;;;;;;;4.04;100.00;101223.47;4986453;28;20218;-71
2021/04/18 00:08:36;;;;;;;13.23;7.90;;;;;;;4.07;100.00;101220.06;4986740;28;20205;-71
2021/04/18 00:11:02;;;;;;;10.90;7.47;;;;;;;4.09;100.00;101218.34;4985028;28;20738;-71
2021/04/18 00:13:28;;;;;;;13.50;8.40;;;;;;;4.11;100.00;101225.25;4984237;28;20287;-71
2021/04/18 00:15:54;;;;;;;13.63;8.37;;;;;;;4.15;100.00;101216.72;4987431;28;20229;-71
2021/04/18 00:18:20;;;;;;;10.87;8.53;;;;;;;4.18;100.00;101214.13;4986080;28;20208;-71
2021/04/18 00:20:46;;;;;;;11.17;8.13;;;;;;;4.22;100.00;101214.16;4985256;28;20216;-71
2021/04/18 00:23:12;;;;;;;11.67;8.53;;;;;;;4.25;100.00;101214.19;4986035;28;20231;-71
2021/04/18 00:25:38;;;;;;;12.07;7.87;;;;;;;4.28;100.00;101214.25;4986810;28;20693;-71
2021/04/18 00:28:05;;;;;;;17.10;9.07;;;;;;;4.31;100.00;101212.56;4987016;28;20205;-71
2021/04/18 00:30:31;;;;;;;11.70;8.13;;;;;;;4.33;100.00;101215.16;4987334;28;20933;-71
2021/04/18 00:32:58;;;;;;;13.93;8.40;;;;;;;4.32;100.00;101209.09;4986370;28;20744;-71
2021/04/18 00:35:24;;;;;;;15.80;9.27;;;;;;;4.34;100.00;101212.59;4978669;28;20243;-71
2021/04/18 00:38:10;;;;;;;14.90;8.60;;;;;;;4.37;100.00;101214.31;4977550;28;20209;-71
2021/04/18 00:40:38;;;;;;;11.00;8.33;;;;;;;4.38;100.00;101210.00;4984270;28;20193;-71
2021/04/18 00:43:06;;;;;;;14.53;8.20;;;;;;;4.40;100.00;101209.19;4981958;28;20364;-71
2021/04/18 00:45:42;;;;;;;12.40;8.07;;;;;;;4.40;100.00;101206.59;4984804;28;20215;-71
2021/04/18 00:48:09;;;;;;;14.43;8.90;;;;;;;4.42;100.00;101210.06;4986407;28;20189;-71
2021/04/18 00:50:39;;;;;;;17.47;9.73;;;;;;;4.45;100.00;101204.03;4987217;28;20559;-71
2021/04/18 00:53:08;;;;;;;22.00;11.20;;;;;;;4.48;100.00;101204.06;4986518;28;20347;-71
2021/04/18 00:55:37;;;;;;;22.67;11.27;;;;;;;4.49;100.00;101209.25;4984963;28;20236;-71
2021/04/18 00:58:06;;;;;;;24.20;11.30;;;;;;;4.50;100.00;101211.00;4986364;28;20244;-71
2021/04/18 01:00:32;;;;;;;23.07;11.80;;;;;;;4.49;100.00;101206.66;4986313;28;20203;-71
2021/04/18 01:02:58;;;;;;;22.43;10.77;;;;;;;4.54;100.00;101209.31;4999193;28;20225;-71
2021/04/18 01:05:26;;;;;;;21.60;11.87;;;;;;;4.61;100.00;101215.34;4982202;28;20217;-71
2021/04/18 01:07:53;;;;;;;20.20;11.33;;;;;;;4.63;100.00;101203.34;4979550;28;20221;-71
2021/04/18 01:10:29;;;;;;;23.50;12.07;;;;;;;4.65;100.00;101201.63;4983423;28;20197;-71
2021/04/18 01:13:00;;;;;;;26.40;12.50;;;;;;;4.68;100.00;101210.28;4981658;28;20224;-71
2021/04/18 01:15:47;;;;;;;24.70;12.50;;;;;;;4.72;100.00;101212.00;4984709;28;20237;-71
2021/04/18 01:18:15;;;;;;;21.63;12.20;;;;;;;4.76;100.00;101214.63;4984175;28;20669;-71
2021/04/18 01:20:41;;;;;;;27.83;12.80;;;;;;;4.78;100.00;101220.66;4987234;28;20284;-71
2021/04/18 01:23:35;;;;;;;25.63;12.70;;;;;;;4.81;100.00;101211.22;4968178;28;20265;-71
2021/04/18 01:26:15;;;;;;;28.20;13.23;;;;;;;4.83;100.00;101206.91;4983491;28;20349;-71
2021/04/18 01:28:42;;;;;;;26.37;13.40;;;;;;;4.86;100.00;101206.09;4986972;28;20276;-71
2021/04/18 01:31:08;;;;;;;29.17;14.17;;;;;;;4.86;100.00;101206.94;4986259;28;20193;-71
2021/04/18 01:33:36;;;;;;;28.27;12.83;;;;;;;4.88;100.00;101200.06;4983470;28;20708;-71
2021/04/18 01:36:03;;;;;;;28.63;13.67;;;;;;;4.91;100.00;101200.09;4987823;28;20272;-71
2021/04/18 01:38:30;;;;;;;31.17;14.17;;;;;;;4.93;100.00;101203.53;4990070;28;20205;-71
2021/04/18 01:40:57;;;;;;;35.03;14.67;;;;;;;4.96;100.00;101202.72;4988703;28;20243;-71
2021/04/18 01:43:24;;;;;;;31.43;14.67;;;;;;;4.98;100.00;101203.59;4988307;28;20229;-71
2021/04/18 01:45:51;;;;;;;31.13;14.63;;;;;;;4.99;100.00;101199.28;4990801;28;20205;-71
2021/04/18 01:48:18;;;;;;;26.97;13.97;;;;;;;5.01;100.00;101202.72;4988382;28;20210;-71
2021/04/18 01:50:48;;;;;;;38.70;15.77;;;;;;;5.02;100.00;101202.72;4986636;28;20780;-71
2021/04/18 01:53:16;;;;;;;26.60;12.80;;;;;;;5.05;100.00;101204.50;4987704;28;20268;-71
2021/04/18 01:55:44;;;;;;;33.70;14.33;;;;;;;5.06;100.00;101194.13;4988865;28;20678;-72
2021/04/18 01:58:11;;;;;;;29.60;14.27;;;;;;;5.07;100.00;101203.63;4988943;28;20204;-71
2021/04/18 02:00:56;;;;;;;28.00;14.43;;;;;;;5.08;100.00;101200.19;4987457;28;20522;-71
2021/04/18 02:03:23;;;;;;;29.70;12.60;;;;;;;5.10;100.00;101203.66;4986893;28;20224;-71
2021/04/18 02:05:51;;;;;;;24.80;12.30;;;;;;;5.11;100.00;101207.94;4990330;28;20197;-71
2021/04/18 02:08:21;;;;;;;24.67;12.40;;;;;;;5.14;100.00;101204.53;4990933;28;20715;-71
2021/04/18 02:10:50;;;;;;;27.30;12.83;;;;;;;5.13;100.00;101198.47;4985460;28;20205;-71
2021/04/18 02:13:17;;;;;;;25.53;12.13;;;;;;;5.18;100.00;101202.84;4990535;28;20213;-71
2021/04/18 02:16:03;;;;;;;25.13;12.10;;;;;;;5.19;100.00;101200.25;4996009;28;20248;-71
2021/04/18 02:18:33;;;;;;;20.37;11.47;;;;;;;5.21;100.00;101211.47;4984116;28;20575;-71
2021/04/18 02:21:00;;;;;;;23.97;11.57;;;;;;;5.23;100.00;101204.56;4991381;28;21006;-71
2021/04/18 02:23:26;;;;;;;20.80;10.40;;;;;;;5.25;100.00;101214.94;4990610;28;20856;-71
2021/04/18 02:25:53;;;;;;;20.97;10.37;;;;;;;5.25;100.00;101209.75;4987497;28;20197;-71
2021/04/18 02:28:21;;;;;;;19.87;10.33;;;;;;;5.26;100.00;101204.59;4989937;28;20215;-71
2021/04/18 02:30:49;;;;;;;17.87;10.20;;;;;;;5.27;100.00;101208.91;4987608;28;20682;-71
2021/04/18 02:33:15;;;;;;;17.33;9.27;;;;;;;5.27;100.00;101206.31;4987826;28;20653;-71
2021/04/18 02:35:42;;;;;;;19.00;10.37;;;;;;;5.28;100.00;101202.03;5009892;28;20215;-71
2021/04/18 02:38:08;;;;;;;18.73;9.97;;;;;;;5.29;100.00;101201.16;4995171;28;20193;-71
2021/04/18 02:40:34;;;;;;;18.33;9.90;;;;;;;5.29;100.00;101195.97;4988723;28;20206;-71
2021/04/18 02:43:00;;;;;;;19.23;9.97;;;;;;;5.29;100.00;101198.56;4989246;28;20307;-71
2021/04/18 02:45:31;;;;;;;19.17;10.03;;;;;;;5.30;100.00;101198.56;4988954;28;20607;-71
2021/04/18 02:47:57;;;;;;;17.00;9.43;;;;;;;5.29;100.00;101206.31;4988861;28;20905;-71
2021/04/18 02:50:24;;;;;;;12.53;7.27;;;;;;;5.28;100.00;101196.84;4988112;28;20202;-71
2021/04/18 02:52:52;;;;;;;12.67;7.47;;;;;;;5.27;100.00;101203.72;4993842;28;20220;-71
2021/04/18 02:55:20;;;;;;;11.47;7.13;;;;;;;5.28;100.00;101192.53;4988127;28;20197;-71
2021/04/18 02:57:55;;;;;;;11.40;7.23;;;;;;;5.29;100.00;101194.28;4987046;28;20193;-71
2021/04/18 03:00:22;;;;;;;12.57;7.37;;;;;;;5.29;100.00;101196.88;4988168;28;20205;-71
2021/04/18 03:02:57;;;;;;;13.60;7.70;;;;;;;5.30;100.00;101195.13;4988281;28;20220;-71
2021/04/18 03:05:28;;;;;;;13.43;7.67;;;;;;;5.29;100.00;101189.09;4986132;28;20197;-71
2021/04/18 03:08:03;;;;;;;15.07;8.57;;;;;;;5.30;100.00;101184.78;4980289;28;20220;-71
2021/04/18 03:10:37;;;;;;;16.87;8.43;;;;;;;5.31;100.00;101182.22;4984631;28;20188;-71
2021/04/18 03:13:13;;;;;;;14.30;7.80;;;;;;;5.32;100.00;101183.94;4987134;28;20252;-71
2021/04/18 03:15:44;;;;;;;14.43;8.13;;;;;;;5.33;100.00;101179.63;4987435;28;20209;-71
2021/04/18 03:18:22;;;;;;;15.07;8.43;;;;;;;5.32;100.00;101173.59;4987599;28;20204;-71
2021/04/18 03:20:49;;;;;;;12.73;7.43;;;;;;;5.34;100.00;101173.59;4987191;28;20347;-71
2021/04/18 03:23:18;;;;;;;14.27;7.50;;;;;;;5.34;100.00;101181.34;4990303;28;20244;-71
2021/04/18 03:25:50;;;;;;;11.83;7.40;;;;;;;5.34;100.00;101183.94;4984917;28;20251;-71
2021/04/18 03:28:19;;;;;;;13.93;7.57;;;;;;;5.34;100.00;101190.84;4988643;28;20201;-71
2021/04/18 03:31:09;;;;;;;12.07;7.27;;;;;;;5.36;100.00;101195.16;4987778;28;20205;-71
2021/04/18 03:34:03;;;;;;;16.43;7.63;;;;;;;5.36;100.00;101192.56;4986253;28;20221;-71
2021/04/18 03:36:31;;;;;;;17.70;8.67;;;;;;;5.37;100.00;101199.47;4984823;28;20207;-71
2021/04/18 03:39:07;;;;;;;12.60;7.87;;;;;;;5.37;100.00;101196.03;4987094;28;20717;-71
2021/04/18 03:41:33;;;;;;;13.07;8.10;;;;;;;5.37;100.00;101199.47;4990778;28;20208;-71
2021/04/18 03:43:59;;;;;;;15.13;7.87;;;;;;;5.36;100.00;101192.56;4985337;28;20233;-71
2021/04/18 03:46:28;;;;;;;17.40;8.50;;;;;;;5.34;100.00;101183.94;4984480;28;20251;-71
2021/04/18 03:48:54;;;;;;;16.00;8.23;;;;;;;5.35;100.00;101188.25;4987892;28;20210;-71
2021/04/18 03:51:21;;;;;;;20.17;9.30;;;;;;;5.37;100.00;101193.44;4986214;28;20207;-71
2021/04/18 03:53:53;;;;;;;16.90;8.50;;;;;;;5.37;100.00;101189.13;4987136;28;20268;-71
2021/04/18 03:56:24;;;;;;;18.77;9.07;;;;;;;5.36;100.00;101184.81;4989235;28;20248;-71
2021/04/18 03:58:53;;;;;;;16.90;8.07;;;;;;;5.40;100.00;101183.09;5002722;28;20197;-71
2021/04/18 04:01:21;;;;;;;17.33;9.07;;;;;;;5.41;100.00;101184.84;4981071;28;20248;-71
2021/04/18 04:03:50;;;;;;;17.67;9.03;;;;;;;5.41;100.00;101177.94;4989533;28;20220;-71
2021/04/18 04:06:20;;;;;;;17.80;9.17;;;;;;;5.42;100.00;101176.22;4985347;28;20247;-71
2021/04/18 04:09:03;;;;;;;18.57;8.97;;;;;;;5.40;100.00;101165.88;4985986;28;20247;-71
2021/04/18 04:11:47;;;;;;;20.00;9.53;;;;;;;5.42;100.00;101173.66;4986200;28;20197;-71
2021/04/18 04:14:28;;;;;;;19.30;9.87;;;;;;;5.43;100.00;101175.34;4987438;28;20213;-71
2021/04/18 04:17:03;;;;;;;17.63;9.53;;;;;;;5.44;100.00;101171.91;4985988;28;20192;-71
2021/04/18 04:19:54;;;;;;;18.40;10.07;;;;;;;5.45;100.00;101176.22;4985101;28;20308;-71
2021/04/18 04:22:44;;;;;;;21.37;10.07;;;;;;;5.45;100.00;101166.75;4988179;28;20230;-71
2021/04/18 04:25:19;;;;;;;20.77;10.43;;;;;;;5.46;100.00;101167.63;4990419;28;20203;-71
2021/04/18 04:27:48;;;;;;;23.23;11.87;;;;;;;5.46;100.00;101171.06;4986221;28;20216;-71
2021/04/18 04:30:35;;;;;;;21.37;11.67;;;;;;;5.46;100.00;101165.03;4985015;28;20340;-71
2021/04/18 04:33:01;;;;;;;24.97;11.37;;;;;;;5.45;100.00;101161.59;4987429;28;20248;-71
2021/04/18 04:35:33;;;;;;;22.43;10.77;;;;;;;5.47;100.00;101148.63;4982284;28;20202;-71
2021/04/18 04:37:59;;;;;;;21.20;11.07;;;;;;;5.47;100.00;101149.53;4986809;28;20193;-71
2021/04/18 04:40:28;;;;;;;20.33;10.73;;;;;;;5.47;100.00;101149.53;4987887;28;20233;-71
2021/04/18 04:43:04;;;;;;;26.10;11.27;;;;;;;5.49;100.00;101158.13;4984367;28;20232;-71
2021/04/18 04:45:52;;;;;;;23.67;11.13;;;;;;;5.50;100.00;101146.94;4985562;28;20197;-71
2021/04/18 04:48:25;;;;;;;23.73;11.40;;;;;;;5.52;100.00;101149.50;4986743;28;20562;-71
2021/04/18 04:51:03;;;;;;;25.83;10.57;;;;;;;5.54;100.00;101147.81;4996425;28;20587;-71
2021/04/18 04:53:36;;;;;;;24.17;11.00;;;;;;;5.55;100.00;101139.19;4986808;28;20216;-71
2021/04/18 04:56:07;;;;;;;22.63;11.10;;;;;;;5.57;100.00;101145.22;4985341;28;20236;-71
2021/04/18 04:58:42;;;;;;;25.07;11.43;;;;;;;5.60;100.00;101144.38;4987351;28;20284;-71
2021/04/18 05:01:17;;;;;;;22.53;11.07;;;;;;;5.62;100.00;101147.81;4983872;28;20196;-71
2021/04/18 05:03:46;;;;;;;27.00;11.50;;;;;;;5.64;100.00;101144.38;4986713;28;20229;-71
2021/04/18 05:06:12;;;;;;;28.77;11.67;;;;;;;5.67;100.00;101151.28;4991020;28;20200;-71
2021/04/18 05:08:58;;;;;;;25.27;11.63;;;;;;;5.68;100.00;101159.06;4987234;28;20190;-71
2021/04/18 05:11:35;;;;;;;27.57;11.70;;;;;;;5.71;100.00;101152.16;4986743;28;20201;-71
2021/04/18 05:14:05;;;;;;;21.37;10.73;;;;;;;5.73;100.00;101161.66;4989307;28;20919;-71
2021/04/18 05:16:31;;;;;;;21.97;9.87;;;;;;;5.76;100.00;101164.25;4990263;28;20248;-71
2021/04/18 05:19:17;;;;;;;25.53;11.83;;;;;;;5.76;100.00;101161.66;4987413;28;20663;-71
2021/04/18 05:21:53;;;;;;;23.90;11.90;;;;;;;5.78;100.00;101154.75;4989872;28;20621;-71
2021/04/18 05:24:28;;;;;;;23.83;11.30;;;;;;;5.79;100.00;101166.00;4989878;28;20324;-71
2021/04/18 05:27:00;;;;;;;23.83;11.53;;;;;;;5.80;100.00;101162.53;4989983;28;20705;-71
2021/04/18 05:29:41;;;;;;;21.90;11.37;;;;;;;5.81;100.00;101167.72;4989699;28;20197;-71
2021/04/18 05:32:21;;;;;;;28.33;13.03;;;;;;;5.84;100.00;101172.91;4989933;28;20201;-71
2021/04/18 05:35:00;;;;;;;26.37;11.77;;;;;;;5.87;100.00;101174.63;4988786;28;20189;-71
2021/04/18 05:37:26;;;;;;;25.00;11.20;;;;;;;5.90;100.00;101169.44;4989718;28;20594;-71
2021/04/18 05:39:52;;;;;;;25.50;11.73;;;;;;;5.92;100.00;101170.31;4989153;28;20233;-71
2021/04/18 05:42:19;;;;;;;27.43;12.37;;;;;;;5.94;100.00;101175.50;4989962;28;20710;-71
2021/04/18 05:44:45;;;;;;;28.97;13.23;;;;;;;5.92;100.00;101178.09;4988735;28;20217;-71
2021/04/18 05:47:11;;;;;;;28.63;11.97;;;;;;;5.93;100.00;101176.34;4989551;28;20642;-71
2021/04/18 05:49:37;;;;;;;26.10;12.03;;;;;;;5.94;100.00;101175.50;4989726;28;20259;-71
2021/04/18 05:52:03;;;;;;;27.00;11.90;;;;;;;5.95;100.00;101180.69;4989502;28;20197;-71
2021/04/18 05:54:29;;;;;;;27.67;11.93;;;;;;;5.97;100.00;101175.53;4987951;28;20221;-71
2021/04/18 05:56:55;;;;;;;27.53;13.40;;;;;;;5.96;100.00;101177.28;4989244;28;20208;-71
2021/04/18 05:59:22;;;;;;;31.43;13.93;;;;;;;5.98;100.00;101185.03;4988574;28;20205;-71
2021/04/18 06:01:48;;;;;;;29.93;13.20;;;;;;;5.98;100.00;101183.31;4985726;28;20193;-71
2021/04/18 06:04:18;;;;;;;27.63;14.00;;;;;;;5.98;100.00;101179.84;4989689;28;20217;-71
2021/04/18 06:06:51;;;;;;;24.73;12.93;;;;;;;5.98;100.00;101196.25;5000653;28;20702;-71
2021/04/18 06:09:17;;;;;;;35.27;15.80;;;;;;;5.94;100.00;101194.47;4989238;28;20255;-71
2021/04/18 06:11:43;;;;;;;31.90;14.37;;;;;;;5.96;100.00;101194.50;4989085;28;20682;-71
2021/04/18 06:14:09;;;;;;;36.60;15.20;;;;;;;5.95;100.00;101197.94;4988571;28;20293;-71
2021/04/18 06:16:41;;;;;;;34.30;15.93;;;;;;;5.96;100.00;101199.69;4989366;28;20708;-71
2021/04/18 06:19:07;;;;;;;32.63;15.67;;;;;;;5.95;100.00;101197.94;4987840;28;20197;-70
2021/04/18 06:21:33;;;;;;;35.30;16.30;;;;;;;5.95;100.00;101193.63;4988232;28;20262;-71
2021/04/18 06:23:59;;;;;;;27.90;13.80;;;;;;;5.92;100.00;101191.03;4982340;28;20428;-71
2021/04/18 06:26:25;;;;;;;27.17;13.70;;;;;;;5.88;100.00;101191.88;4984624;28;20236;-71
2021/04/18 06:28:51;;;;;;;31.00;15.10;;;;;;;5.91;100.00;101181.56;4988220;28;20291;-71
2021/04/18 06:31:17;;;;;;;33.87;18.40;;;;;;;5.92;100.00;101185.84;4984827;28;20232;-71
2021/04/18 06:33:44;;;;;;;29.63;14.30;;;;;;;5.92;100.00;101180.66;4987825;28;20217;-71
2021/04/18 06:36:10;;;;;;;27.10;14.70;;;;;;;5.95;100.00;101185.00;4987998;28;20205;-71
2021/04/18 06:38:36;;;;;;;27.40;14.20;;;;;;;5.94;100.00;101186.72;4987392;28;20201;-71
2021/04/18 06:41:03;;;;;;;28.13;13.87;;;;;;;5.93;100.00;101182.41;4989016;28;20197;-71
2021/04/18 06:43:29;;;;;;;24.13;11.90;;;;;;;5.94;100.00;101185.84;4987702;28;20405;-71
2021/04/18 06:45:55;;;;;;;21.27;11.33;;;;;;;5.88;100.00;101187.56;4988408;28;20197;-71
2021/04/18 06:48:21;;;;;;;22.53;11.17;;;;;;;5.90;100.00;101191.91;4987713;28;20221;-72
2021/04/18 06:50:49;;;;;;;16.67;9.23;;;;;;;5.90;100.00;101186.72;4987245;28;20927;-71
2021/04/18 06:53:16;;;;;;;18.50;10.70;;;;;;;5.83;100.00;101184.09;4986950;28;20626;-71
2021/04/18 06:55:43;;;;;;;19.33;10.33;;;;;;;5.84;100.00;101187.53;4988072;28;20637;-71
2021/04/18 06:58:11;;;;;;;19.23;10.23;;;;;;;5.85;100.00;101184.09;4987873;28;20260;-71
2021/04/18 07:00:37;;;;;;;17.27;9.47;;;;;;;5.83;100.00;101178.94;4986932;28;20216;-72
2021/04/18 07:03:12;;;;;;;17.47;9.97;;;;;;;5.86;100.00;101181.53;4988045;28;20697;-71
2021/04/18 07:05:45;;;;;;;17.00;10.03;;;;;;;5.89;100.00;101172.88;4985170;28;20280;-71
2021/04/18 07:08:24;;;;;;;13.53;8.83;;;;;;;5.92;100.00;101172.91;4984243;28;20585;-71
2021/04/18 07:11:14;;;;;;;13.33;7.63;;;;;;;5.94;100.00;101171.19;4986953;28;20200;-71
2021/04/18 07:13:47;;;;;;;15.70;8.47;;;;;;;5.95;100.00;101185.00;4984721;28;20264;-71
2021/04/18 07:16:25;;;;;;;16.80;9.03;;;;;;;5.93;100.00;101187.59;4987428;28;20278;-71
2021/04/18 07:19:19;;;;;;;15.43;8.43;;;;;;;5.89;100.00;101185.84;4982779;28;20205;-71
2021/04/18 07:21:46;;;;;;;15.87;8.83;;;;;;;5.85;100.00;101178.94;4987540;28;20230;-71
2021/04/18 07:24:17;;;;;;;13.77;8.30;;;;;;;5.91;100.00;101180.66;4987769;28;20217;-71
2021/04/18 07:27:06;;;;;;;12.83;7.17;;;;;;;5.94;100.00;101185.84;4981004;28;20220;-71
2021/04/18 07:29:41;;;;;;;11.77;7.47;;;;;;;5.93;100.00;101182.41;4984261;28;20197;-72
2021/04/18 07:32:20;;;;;;;12.97;7.83;;;;;;;5.93;100.00;101173.75;4986729;28;20946;-71
2021/04/18 07:34:49;;;;;;;11.30;6.50;;;;;;;5.93;100.00;101182.41;4983387;28;20204;-71
2021/04/18 07:37:28;;;;;;;13.07;7.07;;;;;;;5.94;100.00;101175.50;4983672;28;20211;-72
2021/04/18 07:39:58;;;;;;;8.97;5.97;;;;;;;5.94;100.00;101165.16;4986592;28;20201;-72
2021/04/18 07:42:31;;;;;;;9.20;6.67;;;;;;;5.94;100.00;101165.16;4983801;28;20216;-72
2021/04/18 07:45:05;;;;;;;13.70;7.63;;;;;;;5.97;100.00;101157.44;4984439;28;20228;-72
2021/04/18 07:47:34;;;;;;;9.97;6.70;;;;;;;5.97;100.00;101155.69;4993191;28;20217;-72
2021/04/18 07:50:12;;;;;;;9.07;6.20;;;;;;;5.95;100.00;101159.97;4985161;28;20882;-72
2021/04/18 07:52:45;;;;;;;9.67;6.17;;;;;;;6.02;100.00;101166.91;4984942;28;20292;-72
2021/04/18 07:55:13;;;;;;;9.87;6.60;;;;;;;5.94;100.00;101168.59;4977641;28;20202;-72
2021/04/18 07:57:57;;;;;;;10.60;7.63;;;;;;;5.93;100.00;101173.75;4986699;28;20837;-72
2021/04/18 08:00:25;;;;;;;9.33;6.20;;;;;;;5.92;100.00;101169.47;4984194;28;20202;-72
2021/04/18 08:02:54;;;;;;;10.20;6.53;;;;;;;5.91;100.00;101166.03;4984248;28;20649;-72
2021/04/18 08:05:30;;;;;;;13.17;8.40;;;;;;;5.90;100.00;101169.44;4983196;28;20259;-72
2021/04/18 08:08:07;;;;;;;25.27;19.23;;;;;;;5.93;100.00;101171.16;4984889;28;20303;-71
2021/04/18 08:10:35;;;;;;;9.87;6.53;;;;;;;5.92;100.00;101174.63;4985658;28;20267;-72
2021/04/18 08:13:13;;;;;;;9.03;6.03;;;;;;;5.95;100.00;101174.66;4985085;28;20213;-72
2021/04/18 08:15:41;;;;;;;10.43;6.93;;;;;;;5.94;100.00;101178.94;4984995;28;20280;-72
2021/04/18 08:18:17;;;;;;;9.77;6.40;;;;;;;5.92;100.00;101179.81;4984110;28;20220;-71
2021/04/18 08:20:54;;;;;;;8.67;6.00;;;;;;;5.91;100.00;101180.66;4987302;28;20193;-73
2021/04/18 08:23:37;;;;;;;10.03;6.83;;;;;;;5.95;100.00;101175.50;4981800;28;20308;-72
2021/04/18 08:26:10;;;;;;;11.63;6.83;;;;;;;5.97;100.00;101183.31;4984527;28;20755;-72
2021/04/18 08:29:08;;;;;;;13.00;6.33;;;;;;;5.96;100.00;101197.09;4985544;28;20197;-72
2021/04/18 08:31:59;;;;;;;9.47;5.67;;;;;;;5.95;100.00;101192.78;4982088;28;20279;-71
2021/04/18 08:34:32;;;;;;;9.40;6.40;;;;;;;6.02;100.00;101195.41;4985430;28;20221;-72
2021/04/18 08:37:17;;;;;;;8.30;5.73;;;;;;;6.07;100.00;101198.00;4989467;28;20194;-72
2021/04/18 08:40:05;;;;;;;8.40;5.80;;;;;;;6.13;100.00;101186.78;4982493;28;20296;-72
2021/04/18 08:42:33;;;;;;;39.23;15.63;;;;;;;6.11;100.00;101175.56;4982648;28;20212;-72
2021/04/18 08:44:59;;;;;;;39.20;29.40;;;;;;;6.17;100.00;101173.81;4989036;28;20208;-71
2021/04/18 08:47:30;;;;;;;29.80;17.27;;;;;;;6.17;100.00;101175.56;4986897;28;20209;-72
2021/04/18 08:50:07;;;;;;;17.17;11.20;;;;;;;6.18;100.00;101175.56;4985036;28;20200;-71
2021/04/18 08:52:44;;;;;;;19.07;11.50;;;;;;;6.19;100.00;101173.81;4989257;28;20237;-72
2021/04/18 08:55:18;;;;;;;10.13;6.40;;;;;;;6.23;100.00;101173.84;4968780;28;20185;-72
2021/04/18 08:58:05;;;;;;;10.50;7.17;;;;;;;6.23;100.00;101168.66;4968954;28;20585;-72
2021/04/18 09:00:42;;;;;;;8.23;5.70;;;;;;;6.22;100.00;101169.50;4967553;28;20260;-72
2021/04/18 09:03:28;;;;;;;7.90;6.10;;;;;;;6.25;100.00;101168.66;4965101;28;20640;-71
2021/04/18 09:06:12;;;;;;;7.90;5.57;;;;;;;6.32;100.00;101172.97;4966966;28;20198;-72
2021/04/18 09:08:51;;;;;;;7.60;5.40;;;;;;;6.34;100.00;101168.66;4964489;28;20214;-72
2021/04/18 09:11:38;;;;;;;8.27;5.90;;;;;;;6.36;100.00;101163.47;4966758;28;20198;-71
2021/04/18 09:14:07;;;;;;;9.57;6.17;;;;;;;6.39;100.00;101169.53;4965967;28;20321;-71
2021/04/18 09:16:41;;;;;;;9.50;5.73;;;;;;;6.39;100.00;101181.63;4964909;28;20659;-72
2021/04/18 09:19:22;;;;;;;10.37;5.73;;;;;;;6.38;100.00;101175.56;4962842;28;20652;-72
2021/04/18 09:21:59;;;;;;;8.13;5.67;;;;;;;6.41;100.00;101166.94;4963983;28;20206;-72
2021/04/18 09:24:28;;;;;;;6.97;4.77;;;;;;;6.42;100.00;101164.34;4962904;28;20225;-73
2021/04/18 09:27:01;;;;;;;6.70;4.07;;;;;;;6.40;100.00;101160.91;4964752;28;20621;-73
2021/04/18 09:29:48;;;;;;;7.50;5.40;;;;;;;6.51;100.00;101165.19;4968601;28;20273;-72
2021/04/18 09:32:21;;;;;;;8.27;4.87;;;;;;;6.56;100.00;101168.66;4962536;28;20852;-72
2021/04/18 09:34:48;;;;;;;7.27;5.03;;;;;;;6.58;100.00;101175.56;4965726;28;20263;-73
2021/04/18 09:37:24;;;;;;;7.40;5.77;;;;;;;6.52;100.00;101175.56;4966006;28;20292;-72
2021/04/18 09:39:54;;;;;;;6.60;4.67;;;;;;;6.56;100.00;101171.22;4965490;28;20198;-72
2021/04/18 09:42:33;;;;;;;7.43;5.90;;;;;;;6.56;100.00;101176.41;4968396;28;20209;-72
2021/04/18 09:45:13;;;;;;;6.67;5.37;;;;;;;6.54;100.00;101166.06;4965642;28;20202;-72
2021/04/18 09:47:45;;;;;;;7.50;5.30;;;;;;;6.61;100.00;101159.13;4965628;28;20726;-72
2021/04/18 09:50:19;;;;;;;8.57;5.67;;;;;;;6.86;100.00;101156.50;4966363;28;20245;-73
2021/04/18 09:52:48;;;;;;;6.60;5.00;;;;;;;7.22;100.00;101158.13;4968867;28;20264;-73
2021/04/18 09:55:24;;;;;;;8.70;6.17;;;;;;;7.19;100.00;101165.91;4968828;28;20198;-73
2021/04/18 09:58:01;;;;;;;7.30;5.27;;;;;;;7.04;100.00;101166.84;4965506;28;20194;-73
2021/04/18 10:00:37;;;;;;;7.20;5.47;;;;;;;7.13;100.00;101172.00;4966253;28;20197;-73
2021/04/18 10:03:06;;;;;;;7.20;5.27;;;;;;;7.14;100.00;101173.72;4960359;28;20226;-73
2021/04/18 10:05:59;;;;;;;8.70;5.97;;;;;;;7.18;100.00;101165.06;4965533;28;20208;-73
2021/04/18 10:08:36;;;;;;;6.70;5.43;;;;;;;7.35;100.00;101166.72;4969663;28;20225;-72
2021/04/18 10:11:17;;;;;;;9.00;6.10;;;;;;;7.59;100.00;101155.38;4973186;28;20205;-73
2021/04/18 10:13:55;;;;;;;8.70;5.93;;;;;;;7.61;100.00;101173.53;4967913;28;20358;-72
2021/04/18 10:16:41;;;;;;;7.73;6.00;;;;;;;7.50;100.00;101178.78;4975391;28;20217;-73
2021/04/18 10:19:11;;;;;;;8.23;6.07;;;;;;;7.54;100.00;101176.16;4964926;28;20222;-73
2021/04/18 10:21:45;;;;;;;9.33;7.50;;;;;;;7.48;100.00;101171.00;4969084;28;20189;-73
2021/04/18 10:24:32;;;;;;;10.53;7.10;;;;;;;7.42;100.00;101173.59;4970598;28;20218;-72
2021/04/18 10:27:01;;;;;;;7.67;5.67;;;;;;;7.21;100.00;101179.72;4963176;28;20213;-72
2021/04/18 10:29:47;;;;;;;7.40;5.53;;;;;;;7.11;100.00;101178.91;4967874;28;20211;-73
2021/04/18 10:32:15;;;;;;;9.17;5.60;;;;;;;7.10;100.00;101178.91;4968486;28;20560;-73
2021/04/18 10:34:41;;;;;;;8.17;5.50;;;;;;;7.10;100.00;101177.19;4969170;28;20571;-73
2021/04/18 10:37:10;;;;;;;9.07;6.00;;;;;;;7.06;100.00;101179.81;4969641;28;20194;-72
2021/04/18 10:39:46;;;;;;;7.70;5.90;;;;;;;7.08;100.00;101185.84;4969911;28;20285;-73
2021/04/18 10:42:13;;;;;;;7.97;5.90;;;;;;;7.11;100.00;101184.09;4968964;28;20190;-73
2021/04/18 10:44:48;;;;;;;10.37;6.67;;;;;;;7.06;100.00;101182.41;4965520;28;20213;-72
2021/04/18 10:47:23;;;;;;;9.00;6.83;;;;;;;7.10;100.00;101186.69;4968909;28;20213;-73
2021/04/18 10:50:10;;;;;;;10.40;6.83;;;;;;;6.99;100.00;101182.41;4966717;28;20272;-73
2021/04/18 10:52:46;;;;;;;9.23;6.43;;;;;;;7.10;100.00;101182.38;4964863;28;20869;-73
2021/04/18 10:55:14;;;;;;;10.37;7.40;;;;;;;7.11;100.00;101180.66;4968256;28;20750;-72
2021/04/18 10:57:43;;;;;;;10.90;8.63;;;;;;;7.19;100.00;101178.88;4963963;28;20226;-72
2021/04/18 11:00:13;;;;;;;11.77;8.23;;;;;;;7.26;100.00;101175.41;4970017;28;20198;-73
2021/04/18 11:02:45;;;;;;;11.90;8.23;;;;;;;7.34;100.00;101171.06;4968113;28;20557;-73
2021/04/18 11:05:16;;;;;;;11.47;7.87;;;;;;;7.34;100.00;101176.25;4965586;28;20681;-73
2021/04/18 11:07:52;;;;;;;11.73;7.93;;;;;;;7.29;100.00;101184.91;4964871;28;20224;-73
2021/04/18 11:10:28;;;;;;;13.37;8.77;;;;;;;7.22;100.00;101178.88;4966531;28;20683;-72
2021/04/18 11:12:58;;;;;;;12.83;8.63;;;;;;;7.23;100.00;101178.03;4965909;28;20213;-72
2021/04/18 11:15:25;;;;;;;16.10;8.73;;;;;;;7.26;100.00;101178.00;4967705;28;20209;-72
2021/04/18 11:18:07;;;;;;;13.80;9.27;;;;;;;7.25;100.00;101178.88;4961869;28;20376;-73
2021/04/18 11:20:42;;;;;;;12.67;8.23;;;;;;;7.32;100.00;101182.31;4965505;28;20948;-73
2021/04/18 11:23:18;;;;;;;13.03;8.77;;;;;;;7.31;100.00;101175.41;4966104;28;20225;-73
2021/04/18 11:25:49;;;;;;;10.97;8.17;;;;;;;7.38;100.00;101175.34;4963985;28;20599;-73
2021/04/18 11:28:32;;;;;;;12.07;8.30;;;;;;;7.31;100.00;101172.81;4967124;28;20352;-73
2021/04/18 11:31:08;;;;;;;14.93;9.00;;;;;;;7.51;100.00;101164.91;4965292;28;20558;-73
2021/04/18 11:33:45;;;;;;;16.03;10.13;;;;;;;7.58;100.00;101172.69;4964298;28;20654;-73
2021/04/18 11:36:11;;;;;;;15.37;10.40;;;;;;;7.67;100.00;101168.28;4968434;28;20197;-72
2021/04/18 11:38:57;;;;;;;15.87;10.10;;;;;;;7.63;100.00;101171.78;4967570;28;20209;-72